Time;durP1;ratioP1;P1;durP2;ratioP2;P2;SDS_P1;SDS_P2;PMS_P1;PMS_P2;Temp;Humidity;BMP_temperature;BMP_pressure;BME280_temperature;BME280_humidity;BME280_pressure;Samples;Min_cycle;Max_cycle;Signal;HPM_P1;HPM_P2
2022/04/02 00:00:19;;;;;;;12.85;9.10;;;3.80;95.20;;;;;;6259668;28;20543;-84
2022/04/02 00:03:20;;;;;;;15.15;9.63;;;3.70;95.10;;;;;;6259015;28;20080;-83
2022/04/02 00:06:22;;;;;;;12.48;8.68;;;3.90;95.30;;;;;;6261196;28;20052;-84
2022/04/02 00:09:24;;;;;;;13.52;8.15;;;3.70;95.00;;;;;;6260877;28;20051;-85
2022/04/02 00:12:26;;;;;;;12.98;8.80;;;3.70;95.20;;;;;;6258794;28;20132;-83
2022/04/02 00:15:29;;;;;;;15.02;8.77;;;3.70;95.20;;;;;;6258993;28;20050;-83
2022/04/02 00:18:31;;;;;;;15.10;9.82;;;4.10;95.20;;;;;;6257826;28;20101;-84
2022/04/02 00:21:33;;;;;;;16.52;9.63;;;3.60;95.40;;;;;;6258349;28;20061;-84
2022/04/02 00:24:35;;;;;;;11.82;9.35;;;3.70;95.50;;;;;;6258608;28;20045;-84
2022/04/02 00:27:37;;;;;;;12.13;8.95;;;3.70;95.40;;;;;;6259053;28;20041;-82
2022/04/02 00:30:40;;;;;;;14.80;10.40;;;3.70;95.10;;;;;;6257721;28;20075;-82
2022/04/02 00:33:43;;;;;;;15.32;9.45;;;3.70;95.40;;;;;;6254965;28;20049;-83
2022/04/02 00:36:45;;;;;;;23.25;11.13;;;3.70;95.60;;;;;;6258018;28;20124;-83
2022/04/02 00:39:47;;;;;;;13.82;9.20;;;3.70;95.40;;;;;;6258353;28;20108;-83
2022/04/02 00:42:49;;;;;;;14.02;9.50;;;3.60;95.30;;;;;;6257465;28;20129;-82
2022/04/02 00:45:52;;;;;;;14.52;9.95;;;3.60;95.40;;;;;;6256784;28;20049;-84
2022/04/02 00:48:54;;;;;;;15.90;9.73;;;3.60;95.40;;;;;;6256392;28;20041;-84
2022/04/02 00:51:56;;;;;;;15.40;10.15;;;3.60;95.30;;;;;;6257424;28;20053;-84
2022/04/02 00:54:58;;;;;;;14.68;9.75;;;3.60;95.40;;;;;;6257406;28;20505;-83
2022/04/02 00:58:01;;;;;;;15.85;9.45;;;3.60;95.70;;;;;;6257976;28;20743;-85
2022/04/02 01:01:04;;;;;;;17.30;10.65;;;3.50;96.30;;;;;;6259448;28;20045;-85
2022/04/02 01:04:07;;;;;;;15.13;10.27;;;3.40;96.60;;;;;;6259147;28;20132;-85
2022/04/02 01:07:09;;;;;;;17.83;10.55;;;3.40;97.00;;;;;;6260405;28;20053;-84
2022/04/02 01:10:11;;;;;;;18.77;10.27;;;3.40;97.10;;;;;;6259157;28;20124;-85
2022/04/02 01:13:14;;;;;;;15.13;11.00;;;3.30;96.90;;;;;;6259854;28;20426;-86
2022/04/02 01:16:17;;;;;;;14.38;10.10;;;3.30;97.10;;;;;;6258378;28;20053;-87
2022/04/02 01:22:27;;;;;;;17.67;10.13;;;3.40;97.30;;;;;;6262713;28;20053;-81
2022/04/02 01:25:32;;;;;;;15.00;9.75;;;3.40;97.30;;;;;;6264024;28;20057;-81
2022/04/02 01:28:34;;;;;;;13.23;10.48;;;3.30;97.20;;;;;;6264645;28;20049;-81
2022/04/02 01:31:36;;;;;;;18.10;9.70;;;3.30;97.30;;;;;;6265343;28;20142;-81
2022/04/02 01:34:38;;;;;;;13.80;9.55;;;3.30;97.30;;;;;;6263857;28;20041;-80
2022/04/02 01:37:41;;;;;;;18.70;11.45;;;3.30;97.30;;;;;;6262343;28;20130;-80
2022/04/02 01:40:45;;;;;;;16.48;11.88;;;3.30;97.40;;;;;;6262286;28;20045;-80
2022/04/02 01:43:49;;;;;;;15.38;10.23;;;3.30;97.40;;;;;;6263810;28;20049;-81
2022/04/02 01:46:51;;;;;;;15.30;10.25;;;3.30;97.40;;;;;;6263807;28;20072;-81
2022/04/02 01:49:53;;;;;;;14.38;9.10;;;3.20;97.20;;;;;;6263167;28;20538;-81
2022/04/02 01:52:57;;;;;;;14.18;10.20;;;3.10;97.10;;;;;;6262112;28;20648;-81
2022/04/02 01:55:59;;;;;;;11.05;8.25;;;3.00;97.30;;;;;;6264950;28;20059;-81
2022/04/02 01:59:01;;;;;;;16.05;9.68;;;3.10;97.60;;;;;;6263416;28;20109;-82
2022/04/02 02:02:03;;;;;;;12.70;9.48;;;3.10;97.50;;;;;;6264417;28;20072;-81
2022/04/02 02:05:05;;;;;;;13.63;10.68;;;3.00;97.50;;;;;;6264331;28;20097;-81
2022/04/02 02:08:09;;;;;;;15.35;11.32;;;3.00;97.30;;;;;;6264859;28;20048;-80
2022/04/02 02:11:11;;;;;;;12.13;9.05;;;3.00;97.40;;;;;;6263747;28;20049;-81
2022/04/02 02:14:13;;;;;;;12.63;9.65;;;3.00;97.40;;;;;;6264570;28;20069;-81
2022/04/02 02:17:15;;;;;;;15.88;10.90;;;3.10;97.70;;;;;;6263725;28;20584;-81
2022/04/02 02:20:18;;;;;;;14.63;10.77;;;3.10;97.50;;;;;;6262549;28;20045;-81
2022/04/02 02:23:21;;;;;;;15.80;11.55;;;3.10;97.50;;;;;;6263637;28;20053;-81
2022/04/02 02:26:24;;;;;;;13.93;10.10;;;3.30;97.60;;;;;;6264548;28;20050;-81
2022/04/02 02:29:25;;;;;;;15.73;10.88;;;3.00;97.30;;;;;;6263494;28;20128;-81
2022/04/02 02:32:27;;;;;;;18.38;9.95;;;3.00;97.40;;;;;;6263284;28;20052;-82
2022/04/02 02:38:50;;;;;;;15.85;9.80;;;3.00;97.30;;;;;;6263630;28;20041;-81
2022/04/02 02:41:51;;;;;;;18.70;10.52;;;3.00;97.60;;;;;;6262157;28;20087;-80
2022/04/02 02:44:53;;;;;;;20.27;11.30;;;3.00;97.50;;;;;;6263424;28;20072;-81
2022/04/02 02:47:55;;;;;;;13.35;10.02;;;3.00;97.70;;;;;;6264674;28;20045;-81
2022/04/02 02:50:57;;;;;;;13.02;9.43;;;3.00;97.80;;;;;;6263245;28;20521;-81
2022/04/02 02:54:00;;;;;;;17.40;11.40;;;3.10;97.70;;;;;;6264123;28;20045;-81
2022/04/02 02:57:02;;;;;;;19.60;12.20;;;3.10;97.50;;;;;;6263594;28;20095;-81
2022/04/02 03:00:05;;;;;;;14.75;10.45;;;3.10;97.70;;;;;;6263235;28;20108;-81
2022/04/02 03:03:09;;;;;;;16.35;11.18;;;3.10;97.60;;;;;;6263528;28;20553;-81
2022/04/02 03:06:11;;;;;;;17.33;12.30;;;3.10;97.70;;;;;;6271313;28;20041;-81
2022/04/02 03:09:14;;;;;;;16.95;11.45;;;3.10;97.60;;;;;;6270992;28;20076;-81
2022/04/02 03:12:16;;;;;;;17.75;10.77;;;3.00;97.70;;;;;;6267512;28;20046;-81
2022/04/02 03:15:19;;;;;;;18.80;12.68;;;3.00;97.60;;;;;;6267506;28;20219;-81
2022/04/02 03:18:20;;;;;;;18.23;13.05;;;3.00;97.70;;;;;;6266712;28;20041;-81
2022/04/02 03:21:22;;;;;;;19.17;11.65;;;3.00;97.50;;;;;;6265472;28;20057;-81
2022/04/02 03:24:25;;;;;;;18.60;11.63;;;3.00;97.70;;;;;;6266688;28;20052;-81
2022/04/02 03:27:27;;;;;;;18.92;11.63;;;3.00;97.70;;;;;;6266399;28;20045;-81
2022/04/02 03:30:29;;;;;;;18.85;12.60;;;3.00;97.90;;;;;;6266108;28;20052;-81
2022/04/02 03:33:31;;;;;;;16.70;11.85;;;3.10;97.70;;;;;;6263534;28;20060;-81
2022/04/02 03:36:33;;;;;;;16.65;12.30;;;3.10;97.50;;;;;;6261669;28;20124;-81
2022/04/02 03:39:36;;;;;;;15.77;11.52;;;3.00;97.40;;;;;;6262561;28;20422;-81
2022/04/02 03:42:38;;;;;;;17.00;11.00;;;3.00;97.60;;;;;;6264467;28;20049;-82
2022/04/02 03:45:40;;;;;;;17.55;12.30;;;3.00;97.50;;;;;;6263664;28;20060;-81
2022/04/02 03:48:42;;;;;;;15.27;10.65;;;3.00;97.70;;;;;;6264137;28;20042;-81
2022/04/02 03:51:44;;;;;;;19.00;13.07;;;3.10;97.70;;;;;;6263996;28;20144;-81
2022/04/02 03:54:47;;;;;;;19.23;12.68;;;3.10;97.70;;;;;;6264414;28;20046;-81
2022/04/02 03:57:49;;;;;;;19.88;13.20;;;3.10;97.50;;;;;;6264630;28;20042;-80
2022/04/02 04:00:53;;;;;;;18.13;11.00;;;3.10;97.40;;;;;;6264225;28;20062;-81
2022/04/02 04:03:54;;;;;;;16.35;11.45;;;3.10;97.30;;;;;;6264234;28;20077;-81
2022/04/02 04:06:57;;;;;;;19.80;12.57;;;3.10;97.20;;;;;;6263262;28;20564;-81
2022/04/02 04:10:00;;;;;;;18.73;11.68;;;3.10;97.40;;;;;;6258160;28;20038;-81
2022/04/02 04:13:02;;;;;;;17.65;10.98;;;3.10;97.40;;;;;;6238512;28;20128;-81
2022/04/02 04:16:06;;;;;;;17.20;11.05;;;3.10;97.50;;;;;;6240192;28;20050;-81
2022/04/02 04:19:08;;;;;;;16.38;8.68;;;3.10;97.40;;;;;;6238174;28;20042;-81
2022/04/02 04:22:11;;;;;;;21.02;10.15;;;3.10;97.10;;;;;;6237679;28;20077;-82
2022/04/02 04:25:14;;;;;;;13.65;9.98;;;3.10;97.30;;;;;;6238564;28;20054;-81
2022/04/02 04:28:17;;;;;;;20.80;10.25;;;3.00;97.50;;;;;;6235762;28;20422;-81
2022/04/02 04:31:19;;;;;;;14.10;10.15;;;3.10;97.60;;;;;;6236100;28;20100;-81
2022/04/02 04:34:21;;;;;;;13.38;9.85;;;3.10;97.60;;;;;;6231464;28;20072;-83
2022/04/02 04:37:23;;;;;;;13.52;9.45;;;3.10;97.50;;;;;;6231337;28;20054;-82
2022/04/02 04:40:27;;;;;;;15.82;8.43;;;3.10;97.60;;;;;;6234806;28;20104;-82
2022/04/02 04:43:28;;;;;;;13.15;8.75;;;3.10;97.50;;;;;;6237461;28;20133;-82
2022/04/02 04:46:30;;;;;;;15.23;9.25;;;3.10;97.50;;;;;;6237445;28;20049;-81
2022/04/02 04:49:32;;;;;;;12.38;9.07;;;3.10;97.70;;;;;;6235938;28;20046;-81
2022/04/02 04:52:34;;;;;;;15.20;9.88;;;3.10;97.50;;;;;;6237143;28;20123;-82
2022/04/02 04:55:37;;;;;;;17.05;8.52;;;3.10;97.50;;;;;;6237018;28;20053;-81
2022/04/02 04:58:39;;;;;;;14.68;10.02;;;3.00;97.30;;;;;;6235955;28;20054;-81
2022/04/02 05:01:40;;;;;;;18.23;9.05;;;3.10;97.50;;;;;;6237619;28;20046;-82
2022/04/02 05:04:42;;;;;;;15.38;9.20;;;3.10;97.40;;;;;;6236536;28;20517;-81
2022/04/02 05:07:44;;;;;;;11.32;8.40;;;3.10;97.40;;;;;;6237036;28;20096;-82
2022/04/02 05:10:48;;;;;;;14.38;9.57;;;3.00;97.50;;;;;;6234758;28;20053;-81
2022/04/02 05:13:50;;;;;;;12.82;9.18;;;3.10;97.60;;;;;;6239555;28;20049;-81
2022/04/02 05:16:53;;;;;;;12.38;8.98;;;3.00;97.50;;;;;;6237565;28;20115;-81
2022/04/02 05:19:54;;;;;;;13.60;8.93;;;3.10;97.50;;;;;;6238138;28;20495;-81
2022/04/02 05:22:56;;;;;;;14.20;10.07;;;3.00;97.20;;;;;;6238614;28;20070;-81
2022/04/02 05:26:00;;;;;;;16.77;10.02;;;2.90;97.60;;;;;;6237528;28;20057;-81
2022/04/02 05:29:01;;;;;;;15.90;10.30;;;2.90;98.10;;;;;;6239484;28;20137;-81
2022/04/02 05:32:04;;;;;;;16.58;10.23;;;2.80;97.80;;;;;;6239687;28;20080;-81
2022/04/02 05:35:06;;;;;;;17.70;10.90;;;2.80;98.00;;;;;;6238758;28;20054;-81
2022/04/02 05:38:08;;;;;;;16.27;11.70;;;2.90;98.20;;;;;;6238649;28;20066;-81
2022/04/02 05:41:11;;;;;;;17.33;10.55;;;2.90;97.90;;;;;;6238748;28;20065;-81
2022/04/02 05:44:13;;;;;;;14.88;9.80;;;2.90;98.00;;;;;;6239360;28;20136;-81
2022/04/02 05:47:15;;;;;;;13.90;10.07;;;2.80;97.70;;;;;;6239494;28;20085;-80
2022/04/02 05:50:19;;;;;;;14.73;9.63;;;2.80;97.90;;;;;;6237892;28;20574;-81
2022/04/02 05:53:20;;;;;;;18.60;11.30;;;2.90;98.00;;;;;;6237959;28;20419;-81
2022/04/02 05:56:24;;;;;;;16.75;10.45;;;3.00;98.00;;;;;;6237876;28;20113;-81
2022/04/02 05:59:26;;;;;;;19.20;10.43;;;2.90;97.60;;;;;;6238244;28;20259;-81
2022/04/02 06:02:28;;;;;;;15.23;10.02;;;2.90;97.80;;;;;;6235980;28;20447;-81
2022/04/02 06:05:29;;;;;;;15.43;10.68;;;3.00;97.80;;;;;;6237598;28;20056;-81
2022/04/02 06:08:32;;;;;;;16.05;9.73;;;3.00;97.70;;;;;;6239307;28;20100;-81
2022/04/02 06:11:35;;;;;;;17.50;10.40;;;3.00;97.70;;;;;;6237696;28;20053;-80
2022/04/02 06:14:37;;;;;;;19.73;10.00;;;3.00;97.60;;;;;;6238471;28;20078;-81
2022/04/02 06:17:39;;;;;;;16.13;10.10;;;3.00;97.70;;;;;;6236250;28;20096;-82
2022/04/02 06:20:41;;;;;;;16.13;10.93;;;3.00;97.70;;;;;;6236503;28;20045;-81
2022/04/02 06:23:43;;;;;;;15.57;10.30;;;3.00;97.70;;;;;;6238696;28;20050;-81
2022/04/02 06:26:46;;;;;;;12.40;7.78;;;3.00;97.80;;;;;;6239137;28;20053;-81
2022/04/02 06:29:48;;;;;;;16.33;9.57;;;2.90;97.60;;;;;;6238988;28;20058;-81
2022/04/02 06:32:50;;;;;;;13.60;8.13;;;2.90;97.70;;;;;;6236081;28;20052;-81
2022/04/02 06:35:52;;;;;;;11.30;7.97;;;2.90;97.80;;;;;;6237758;28;20045;-81
2022/04/02 06:38:54;;;;;;;11.52;7.78;;;3.00;97.90;;;;;;6233746;28;20427;-80
2022/04/02 06:41:57;;;;;;;15.10;9.20;;;3.10;98.00;;;;;;6231752;28;20052;-81
2022/04/02 06:44:59;;;;;;;10.90;6.53;;;3.20;97.60;;;;;;6202678;28;20084;-81
2022/04/02 06:48:01;;;;;;;11.43;7.65;;;3.30;97.30;;;;;;6260353;28;20100;-81
2022/04/02 06:51:02;;;;;;;12.43;8.48;;;3.20;97.20;;;;;;6260044;28;20045;-81
2022/04/02 06:54:06;;;;;;;20.67;10.48;;;3.30;97.30;;;;;;6259518;28;20046;-81
2022/04/02 06:57:09;;;;;;;14.63;8.38;;;3.30;97.30;;;;;;6259398;28;20041;-81
2022/04/02 07:00:12;;;;;;;15.23;10.13;;;3.40;97.30;;;;;;6258670;28;20131;-81
2022/04/02 07:03:14;;;;;;;10.82;7.90;;;3.40;97.30;;;;;;6259477;28;20045;-81
2022/04/02 07:06:15;;;;;;;10.95;7.65;;;3.50;97.10;;;;;;6260244;28;20042;-80
2022/04/02 07:09:18;;;;;;;14.82;8.40;;;3.50;97.00;;;;;;6258162;28;20052;-80
2022/04/02 07:12:21;;;;;;;12.93;6.47;;;3.40;96.40;;;;;;6257952;28;20045;-80
2022/04/02 07:15:23;;;;;;;11.63;8.40;;;3.40;96.80;;;;;;6259624;28;20049;-80
2022/04/02 07:18:26;;;;;;;11.35;7.35;;;3.40;96.70;;;;;;6260805;28;20065;-80
2022/04/02 07:21:29;;;;;;;7.47;5.88;;;3.50;96.60;;;;;;6260500;28;20510;-80
2022/04/02 07:24:32;;;;;;;10.32;7.13;;;3.50;96.90;;;;;;6260439;28;20527;-80
2022/04/02 07:27:38;;;;;;;13.75;7.95;;;3.60;97.00;;;;;;6260682;28;20058;-80
2022/04/02 07:30:40;;;;;;;11.57;8.45;;;3.70;96.90;;;;;;6257689;28;20140;-80
2022/04/02 07:33:42;;;;;;;10.68;7.60;;;3.80;96.70;;;;;;6257449;28;20065;-80
2022/04/02 07:36:55;;;;;;;11.43;7.47;;;4.00;96.70;;;;;;6255842;28;20025;-81
2022/04/02 07:40:03;;;;;;;11.18;7.05;;;4.00;96.80;;;;;;6258278;28;20454;-81
2022/04/02 07:43:18;;;;;;;12.48;8.10;;;4.10;95.60;;;;;;6256896;28;20073;-81
2022/04/02 07:46:23;;;;;;;10.75;7.47;;;4.00;96.10;;;;;;6256450;28;20053;-81
2022/04/02 07:49:33;;;;;;;9.07;5.72;;;4.20;95.60;;;;;;6253843;28;20441;-81
2022/04/02 07:52:37;;;;;;;9.88;6.68;;;4.20;95.90;;;;;;6261635;28;20051;-81
2022/04/02 07:55:42;;;;;;;11.18;8.48;;;4.20;95.90;;;;;;6255632;28;20479;-80
2022/04/02 07:58:51;;;;;;;10.98;7.28;;;4.30;96.00;;;;;;6255115;28;20061;-81
2022/04/02 08:01:55;;;;;;;9.05;6.68;;;4.40;95.40;;;;;;6255950;28;20132;-81
2022/04/02 08:05:02;;;;;;;15.45;8.20;;;4.40;95.50;;;;;;6254781;28;20521;-81
2022/04/02 08:08:08;;;;;;;14.27;8.00;;;4.40;95.20;;;;;;6257397;28;20121;-81
2022/04/02 08:11:11;;;;;;;9.63;5.88;;;4.60;95.90;;;;;;6256004;28;20138;-81
2022/04/02 08:14:15;;;;;;;8.90;6.78;;;4.60;94.50;;;;;;6256801;28;20136;-81
2022/04/02 08:17:17;;;;;;;9.82;6.68;;;4.30;94.70;;;;;;6257799;28;20053;-79
2022/04/02 08:20:19;;;;;;;9.13;6.40;;;4.30;94.80;;;;;;6255199;28;20195;-81
2022/04/02 08:23:22;;;;;;;9.07;7.25;;;4.50;95.20;;;;;;6260782;28;20715;-80
2022/04/02 08:26:28;;;;;;;9.20;6.50;;;4.60;95.10;;;;;;6269022;28;20049;-80
2022/04/02 08:29:42;;;;;;;13.63;5.80;;;4.70;94.50;;;;;;6278422;28;20052;-80
2022/04/02 08:33:08;;;;;;;9.38;6.18;;;4.70;94.40;;;;;;6284202;28;20095;-80
2022/04/02 08:36:21;;;;;;;14.02;6.32;;;4.70;94.30;;;;;;6252220;28;20057;-81
2022/04/02 08:39:43;;;;;;;7.20;5.13;;;4.80;94.60;;;;;;6287193;28;20126;-82
2022/04/02 08:47:07;;;;;;;7.32;6.00;;;4.90;94.00;;;;;;6310010;27;20505;-83
2022/04/02 08:50:11;;;;;;;17.15;6.60;;;4.80;94.10;;;;;;6288961;28;20049;-80
2022/04/02 08:53:22;;;;;;;9.75;6.50;;;4.50;93.90;;;;;;6284501;28;20051;-82
2022/04/02 08:56:29;;;;;;;8.23;5.57;;;4.70;94.70;;;;;;6277972;28;20546;-78
2022/04/02 08:59:37;;;;;;;12.88;7.03;;;4.70;94.40;;;;;;6248957;28;20061;-79
2022/04/02 09:03:03;;;;;;;8.55;5.57;;;4.80;94.60;;;;;;6256376;28;20056;-78
2022/04/02 09:06:39;;;;;;;11.40;6.80;;;4.80;93.80;;;;;;6269510;28;20099;-81
2022/04/02 09:10:14;;;;;;;8.75;5.05;;;4.90;94.20;;;;;;6274690;28;20049;-79
2022/04/02 09:13:42;;;;;;;7.60;5.68;;;4.90;94.20;;;;;;6257747;28;20053;-79
2022/04/02 09:17:01;;;;;;;9.13;5.40;;;5.10;94.20;;;;;;6274867;28;20079;-79
2022/04/02 09:20:21;;;;;;;9.10;4.85;;;5.20;93.80;;;;;;6274479;28;20414;-79
2022/04/02 09:23:41;;;;;;;6.82;5.25;;;5.00;93.30;;;;;;6281930;28;20160;-79
2022/04/02 09:27:16;;;;;;;8.10;5.05;;;5.00;93.50;;;;;;6273137;28;20041;-79
2022/04/02 09:30:32;;;;;;;8.35;4.18;;;4.90;93.60;;;;;;6273989;28;20053;-79
2022/04/02 09:34:02;;;;;;;7.22;4.32;;;4.80;93.30;;;;;;6275924;28;20048;-78
2022/04/02 09:37:15;;;;;;;7.20;4.55;;;4.70;93.90;;;;;;6276105;28;20041;-80
2022/04/02 09:43:53;;;;;;;9.60;5.75;;;4.80;93.40;;;;;;6274519;28;20136;-80
2022/04/02 09:47:16;;;;;;;6.55;4.15;;;4.60;93.70;;;;;;6267331;28;20060;-80
2022/04/02 09:50:29;;;;;;;32.53;21.15;;;4.60;94.10;;;;;;6276346;28;20121;-81
2022/04/02 09:53:40;;;;;;;17.58;10.68;;;4.50;94.60;;;;;;6291146;28;20075;-81
2022/04/02 09:56:52;;;;;;;8.13;5.43;;;4.60;94.30;;;;;;6273155;28;20037;-81
2022/04/02 10:00:05;;;;;;;12.18;4.38;;;4.60;94.30;;;;;;6259080;28;20426;-79
2022/04/02 10:03:17;;;;;;;9.85;4.50;;;4.50;94.60;;;;;;6259717;28;20046;-81
2022/04/02 10:06:28;;;;;;;6.68;5.18;;;4.60;94.50;;;;;;6260509;28;20117;-80
2022/04/02 10:09:34;;;;;;;6.28;4.68;;;4.80;94.60;;;;;;6258379;28;20052;-78
2022/04/02 10:12:37;;;;;;;10.30;4.47;;;4.80;94.30;;;;;;6256137;28;20083;-80
2022/04/02 10:15:42;;;;;;;7.25;4.20;;;4.90;94.30;;;;;;6261390;28;20049;-80
2022/04/02 10:18:46;;;;;;;7.72;4.82;;;4.90;94.20;;;;;;6263228;28;20120;-83
2022/04/02 10:21:51;;;;;;;9.25;4.40;;;5.20;94.30;;;;;;6264836;28;20051;-82
2022/04/02 10:25:14;;;;;;;9.48;6.35;;;5.30;94.00;;;;;;6211784;28;20045;-79
2022/04/02 10:28:28;;;;;;;6.32;3.80;;;5.30;93.60;;;;;;6229161;28;20496;-79
2022/04/02 10:31:37;;;;;;;11.10;5.15;;;5.40;93.60;;;;;;6188098;28;20051;-79
2022/04/02 10:34:51;;;;;;;9.38;5.25;;;5.20;93.80;;;;;;6185712;28;20106;-79
2022/04/02 10:38:24;;;;;;;7.75;4.70;;;4.90;93.40;;;;;;6210296;28;20052;-78
2022/04/02 10:41:31;;;;;;;5.90;4.45;;;4.70;93.70;;;;;;6228597;28;20420;-79
2022/04/02 10:44:45;;;;;;;9.73;4.90;;;4.60;94.20;;;;;;6232172;28;20045;-79
2022/04/02 10:47:48;;;;;;;7.10;4.65;;;4.50;94.30;;;;;;6232818;28;20120;-79
2022/04/02 10:50:51;;;;;;;6.75;4.10;;;4.40;94.50;;;;;;6232462;28;20471;-80
2022/04/02 10:54:01;;;;;;;5.75;4.60;;;4.30;94.70;;;;;;6255084;28;20076;-80
2022/04/02 10:57:06;;;;;;;9.40;5.07;;;4.40;95.10;;;;;;6257846;28;20045;-80
2022/04/02 11:00:09;;;;;;;9.15;5.35;;;4.40;95.10;;;;;;6258026;28;20479;-80
2022/04/02 11:03:28;;;;;;;12.32;5.35;;;4.40;95.10;;;;;;6258214;28;20083;-80
2022/04/02 11:06:48;;;;;;;15.85;10.15;;;4.40;95.00;;;;;;6261088;28;20042;-80
2022/04/02 11:09:53;;;;;;;11.27;5.53;;;4.40;95.00;;;;;;6260546;28;20049;-81
2022/04/02 11:13:02;;;;;;;7.53;4.70;;;4.50;95.20;;;;;;6261823;28;20091;-81
2022/04/02 11:16:13;;;;;;;6.68;4.03;;;4.50;94.00;;;;;;6262588;28;20416;-81
2022/04/02 11:23:06;;;;;;;9.20;4.85;;;4.40;95.10;;;;;;6224237;28;20038;-81
2022/04/02 11:26:12;;;;;;;8.25;5.57;;;4.10;95.10;;;;;;6256039;28;20046;-81
2022/04/02 11:29:19;;;;;;;12.45;5.35;;;4.10;95.50;;;;;;6258326;28;20046;-80
2022/04/02 11:32:25;;;;;;;8.15;5.68;;;4.10;95.10;;;;;;6257102;28;20132;-81
2022/04/02 11:35:29;;;;;;;7.43;5.13;;;4.10;95.20;;;;;;6257926;28;20059;-82
2022/04/02 11:38:36;;;;;;;6.70;4.80;;;4.10;95.60;;;;;;6256361;28;20557;-81
2022/04/02 11:41:41;;;;;;;10.70;6.03;;;4.20;95.40;;;;;;6254553;28;20099;-81
2022/04/02 11:44:52;;;;;;;10.52;6.18;;;4.10;95.10;;;;;;6254990;28;20510;-81
2022/04/02 11:48:02;;;;;;;7.55;5.13;;;4.10;95.90;;;;;;6258422;28;20049;-81
2022/04/02 11:51:18;;;;;;;11.68;6.18;;;4.10;95.70;;;;;;6258383;28;20046;-81
2022/04/02 11:54:23;;;;;;;8.88;5.72;;;4.00;95.70;;;;;;6255861;28;20073;-81
2022/04/02 11:57:30;;;;;;;10.20;5.95;;;4.10;95.80;;;;;;6256407;28;20049;-81
2022/04/02 12:00:39;;;;;;;10.70;4.82;;;4.30;95.80;;;;;;6255056;28;20574;-81
2022/04/02 12:03:42;;;;;;;10.32;6.07;;;4.30;95.30;;;;;;6259303;28;20053;-81
2022/04/02 12:06:47;;;;;;;10.60;5.85;;;4.10;94.80;;;;;;6259316;28;20041;-81
2022/04/02 12:10:06;;;;;;;11.75;6.25;;;3.90;95.00;;;;;;6260511;28;20055;-82
2022/04/02 12:13:10;;;;;;;9.38;5.03;;;3.90;96.10;;;;;;6259009;28;20052;-82
2022/04/02 12:16:17;;;;;;;7.32;5.22;;;4.00;96.30;;;;;;6264163;28;20045;-80
2022/04/02 12:19:53;;;;;;;7.97;5.38;;;4.10;96.10;;;;;;6259925;28;20076;-83
2022/04/02 12:23:08;;;;;;;10.15;6.45;;;4.20;96.50;;;;;;6267331;28;20073;-81
2022/04/02 12:26:28;;;;;;;6.13;4.43;;;4.40;96.10;;;;;;6255452;28;20049;-81
2022/04/02 12:29:38;;;;;;;8.60;5.85;;;4.50;95.70;;;;;;6257400;28;20053;-81
2022/04/02 12:32:49;;;;;;;7.65;5.63;;;4.40;95.30;;;;;;6256612;28;20071;-81
2022/04/02 12:36:01;;;;;;;10.40;5.00;;;4.30;95.70;;;;;;6258370;28;20048;-81
2022/04/02 12:39:07;;;;;;;7.80;5.35;;;4.20;95.90;;;;;;6258606;28;20598;-81
2022/04/02 12:42:08;;;;;;;8.07;5.88;;;4.00;95.60;;;;;;6260162;28;20109;-81
2022/04/02 12:45:13;;;;;;;13.07;6.07;;;3.80;96.60;;;;;;6256326;28;20109;-82
2022/04/02 12:48:18;;;;;;;9.88;6.22;;;3.80;96.80;;;;;;6256243;28;20076;-81
2022/04/02 12:51:20;;;;;;;17.30;10.95;;;3.90;96.80;;;;;;6260408;28;20147;-81
2022/04/02 12:54:31;;;;;;;12.00;9.32;;;4.00;97.00;;;;;;6249765;28;20136;-83
2022/04/02 12:57:33;;;;;;;13.00;6.40;;;4.20;97.10;;;;;;6255806;28;20046;-81
2022/04/02 13:00:37;;;;;;;13.20;7.30;;;4.30;96.70;;;;;;6259099;28;20056;-81
2022/04/02 13:03:48;;;;;;;11.82;6.72;;;4.30;96.20;;;;;;6257070;28;20503;-83
2022/04/02 13:06:50;;;;;;;8.30;5.45;;;4.40;96.60;;;;;;6255707;28;20120;-82
2022/04/02 13:09:53;;;;;;;13.05;6.78;;;4.50;96.60;;;;;;6257935;28;20046;-81
2022/04/02 13:12:59;;;;;;;12.70;6.20;;;4.60;96.60;;;;;;6257166;28;20117;-83
2022/04/02 13:16:02;;;;;;;12.02;6.75;;;4.80;96.00;;;;;;6259580;28;20148;-83
2022/04/02 13:22:28;;;;;;;12.95;7.93;;;4.80;96.80;;;;;;6258524;28;20049;-82
2022/04/02 13:25:31;;;;;;;10.20;5.68;;;4.90;96.40;;;;;;6259512;28;20029;-82
2022/04/02 13:28:56;;;;;;;9.77;6.15;;;4.80;95.40;;;;;;6257613;28;20052;-82
2022/04/02 13:32:39;;;;;;;13.93;6.45;;;4.70;95.50;;;;;;6260193;28;20108;-82
2022/04/02 13:35:44;;;;;;;8.15;6.13;;;4.60;96.20;;;;;;6255422;28;20049;-82
2022/04/02 13:38:56;;;;;;;11.75;6.85;;;4.50;95.80;;;;;;6235188;28;20045;-82
2022/04/02 13:41:59;;;;;;;12.63;7.43;;;4.50;95.90;;;;;;6237445;28;20141;-83
2022/04/02 13:45:03;;;;;;;15.20;8.77;;;4.60;95.50;;;;;;6235550;28;20096;-82
2022/04/02 13:48:07;;;;;;;16.05;6.78;;;4.70;96.50;;;;;;6234614;28;20157;-82
2022/04/02 13:51:12;;;;;;;14.02;9.20;;;4.80;96.00;;;;;;6237496;28;20045;-82
2022/04/02 13:57:50;;;;;;;10.60;7.95;;;4.90;96.40;;;;;;6254087;28;20053;-82
2022/04/02 14:00:58;;;;;;;12.65;7.40;;;5.10;96.40;;;;;;6262253;28;20068;-81
2022/04/02 14:04:10;;;;;;;14.10;8.15;;;5.40;96.40;;;;;;6263792;28;20060;-81
2022/04/02 14:07:28;;;;;;;8.75;7.05;;;5.70;96.00;;;;;;6261675;28;20067;-83
2022/04/02 14:10:39;;;;;;;11.30;7.30;;;5.70;95.80;;;;;;6257905;28;20522;-84
2022/04/02 14:14:14;;;;;;;13.73;6.90;;;5.60;95.60;;;;;;6261906;28;20053;-80
2022/04/02 14:17:22;;;;;;;11.70;7.32;;;5.40;95.30;;;;;;6263815;28;20061;-83
2022/04/02 14:20:26;;;;;;;12.38;7.53;;;5.10;95.20;;;;;;6259554;28;20107;-81
2022/04/02 14:23:35;;;;;;;24.83;16.10;;;4.90;95.10;;;;;;6258444;28;20395;-81
2022/04/02 14:27:13;;;;;;;9.27;6.10;;;4.80;95.60;;;;;;6263887;28;20054;-82
2022/04/02 14:30:31;;;;;;;15.07;7.53;;;4.70;94.90;;;;;;6257947;28;20053;-81
2022/04/02 14:34:18;;;;;;;12.55;5.68;;;4.40;95.70;;;;;;6258360;28;20049;-82
2022/04/02 14:37:59;;;;;;;10.20;6.38;;;4.30;96.20;;;;;;6168015;28;20054;-83
2022/04/02 14:41:27;;;;;;;14.88;6.95;;;4.20;96.50;;;;;;6238335;28;20088;-82
2022/04/02 14:45:10;;;;;;;14.10;8.30;;;4.30;96.50;;;;;;6238019;28;20054;-81
2022/04/02 14:48:43;;;;;;;11.38;6.95;;;4.40;96.70;;;;;;6254836;28;20128;-82
2022/04/02 14:52:27;;;;;;;14.45;7.90;;;4.60;96.90;;;;;;6261022;28;20100;-82
2022/04/02 14:56:21;;;;;;;11.32;8.05;;;4.90;96.70;;;;;;6239153;28;20073;-81
2022/04/02 15:00:06;;;;;;;14.55;8.15;;;5.20;96.80;;;;;;6237534;28;20061;-82
2022/04/02 15:03:38;;;;;;;11.80;7.47;;;5.40;96.30;;;;;;6226433;28;20061;-82
2022/04/02 15:07:08;;;;;;;16.73;7.68;;;5.50;96.20;;;;;;6243268;28;20072;-81
2022/04/02 15:14:09;;;;;;;14.00;7.00;;;5.10;95.70;;;;;;6256256;28;20053;-84
2022/04/02 15:17:37;;;;;;;12.90;7.38;;;4.90;95.80;;;;;;6238905;28;20100;-82
2022/04/02 15:20:41;;;;;;;19.98;8.95;;;4.40;96.40;;;;;;6259546;28;20048;-81
2022/04/02 15:24:21;;;;;;;12.82;7.82;;;4.70;97.20;;;;;;6255244;28;20115;-81
2022/04/02 15:27:51;;;;;;;12.65;8.95;;;4.90;97.10;;;;;;6252727;28;20055;-81
2022/04/02 15:30:55;;;;;;;12.25;8.43;;;5.10;97.10;;;;;;6246062;28;20056;-83
2022/04/02 15:33:58;;;;;;;14.82;9.27;;;5.10;96.80;;;;;;6256373;28;20068;-83
2022/04/02 15:37:06;;;;;;;16.55;7.90;;;5.10;96.70;;;;;;6255412;28;20049;-82
2022/04/02 15:43:55;;;;;;;16.17;8.52;;;4.80;96.60;;;;;;6253661;28;20045;-81
2022/04/02 15:47:24;;;;;;;9.23;6.35;;;4.60;96.40;;;;;;6254402;28;20051;-81
2022/04/02 15:50:28;;;;;;;20.83;8.10;;;4.60;96.60;;;;;;6254118;28;20045;-80
2022/04/02 15:53:30;;;;;;;18.40;10.18;;;4.50;96.80;;;;;;6250198;28;20041;-80
2022/04/02 15:57:05;;;;;;;23.25;9.75;;;4.60;97.00;;;;;;6254318;28;20053;-80
2022/04/02 16:00:25;;;;;;;28.33;10.32;;;4.70;97.10;;;;;;6258207;28;20053;-80
2022/04/02 16:03:45;;;;;;;16.05;8.85;;;5.00;97.10;;;;;;6254116;28;20667;-80
2022/04/02 16:06:48;;;;;;;12.15;7.38;;;5.30;96.80;;;;;;6251773;28;20069;-80
2022/04/02 16:10:09;;;;;;;14.65;8.73;;;5.30;96.30;;;;;;6251050;28;20100;-80
2022/04/02 16:13:22;;;;;;;12.25;8.02;;;5.30;96.50;;;;;;6251576;28;20060;-80
2022/04/02 16:16:26;;;;;;;14.18;8.65;;;5.50;96.80;;;;;;6254079;28;20049;-80
2022/04/02 16:19:32;;;;;;;13.52;7.68;;;5.60;96.70;;;;;;6252535;28;20068;-80
2022/04/02 16:22:37;;;;;;;13.45;8.40;;;5.70;96.40;;;;;;6252488;28;20064;-80
2022/04/02 16:25:39;;;;;;;74.85;28.48;;;5.70;95.80;;;;;;6251019;28;20414;-80
2022/04/02 16:35:38;;;;;;;16.42;7.95;;;5.20;95.50;;;;;;6257339;28;20454;-80
2022/04/02 16:39:07;;;;;;;14.45;7.82;;;5.20;96.20;;;;;;6254386;28;20057;-82
2022/04/02 16:42:10;;;;;;;15.43;7.17;;;5.10;95.80;;;;;;6248802;28;20045;-80
2022/04/02 16:45:12;;;;;;;14.90;8.38;;;4.90;96.00;;;;;;6250055;28;20050;-80
2022/04/02 16:48:15;;;;;;;12.85;9.02;;;4.90;96.70;;;;;;6249905;28;20081;-80
2022/04/02 16:51:17;;;;;;;12.13;7.78;;;4.90;96.60;;;;;;6251313;28;20148;-80
2022/04/02 16:54:21;;;;;;;12.10;7.95;;;4.80;96.70;;;;;;6250673;28;20049;-80